Freeport, TX (77541)

2:19 AM CST on November 27, 2014 (GMT -0600)
Freeport - Air Liquide | Change Station
CLOSE
Current Station
Personal Weather Station
Location: Freeport, TX
Elevation: 10 ft
Nearby Weather Stations

Elev 10 ft 28.99 °N, 95.34 °W | Updated 13 seconds ago

Clear
Clear
51.8 °F
Feels Like 51.8 °F
N
5.0
Wind Variable Wind from NNW
Gusts 6.0 mph

Today
High -- | Low -- °F
--% Chance of Precip.
Yesterday
High -- | Low -- °F
Precip. -- in
6:54 AM 5:23 PM
Waxing Crescent, 27% visible
Pressure 30.35 in
Visibility 10.0 miles
Clouds Clear
Dew Point 50 °F
Humidity 93%
Rainfall 0.00 in
Snow Depth Not available.
UV 0.0 out of 12
Pollen 3.40 out of 12
Air Quality Not available.
Flu Activity Not available.
METAR KLBX 270753Z AUTO 35003KT 10SM CLR 06/06 A3035 RMK AO2 SLP277 T00610061

More Conditions Fewer Conditions

Pressure 30.35 in
Visibility 10.0 miles
Clouds Clear
Dew Point 50 °F
Humidity 93%
Rainfall 0.00 in
Snow Depth Not available.
UV 0.0 out of 12
Pollen 3.40 out of 12
Air Quality Not available.
Flu Activity Not available.
METAR KLBX 270753Z AUTO 35003KT 10SM CLR 06/06 A3035 RMK AO2 SLP277 T00610061

More Conditions Fewer Conditions

10-Day Weather Forecast

Almanac

Astronomy

Nov. 27, 2014 Rise Set
Actual Time
Civil Twilight
Nautical Twilight
Astronomical Twilight
Moon
Length of Visible Light
Length of Day
Tomorrow will be .
, % of the Moon is Illuminated

Today's Extremes

State Highs State Lows

Community

WunderPhotos

Upload Photos

1,773,965 photos uploaded!

WunderBlogs® & News

Nearby

Air Quality

  Air Quality AQ Index Pollutant
Not available.

Snow Depth

Station Depth Elevation

Earthquake Activity

City Distance Mag. Time & Date
Minimum magnitude displayed is 2.5.

Coastal Water Temperatures

Place Temperature

Nearby Weather Stations